San Antonio, Texas
Traffic Map
Current Weather Conditions
San Antonio, Texas
Overcast
Overcast
25°
Feels Like: 25°
Wind Chill: 25° Ceiling: 600
Heat Index: 25° Visibility: 10mi
Dew Point: 25° Wind: 5mph
Humidity: 100% Direction: 130° (SE)
Pressure: 29.95in Gusts: 0mph
Raw Report DataKSKF 171308Z AUTO 13004KT 10SM BKN006 OVC012 25/25 A2995 RMK AO2 $
Traffic Incident Summary
Active as of:
Severity:
Category:
InformationThere was an issue retrieving the traffic information for this location. Please try a different location or try again shortly.
Advertisements
Track Severe Weather on mobile